In Rescue
 
Open Full Screen Window  High Contrast Mode
Wind Gusting 00 knots
09
November 29, 2022 10:15 AM EST
Weather Information
Wind Direction
  170 °
Wind Speed
  09 kt (10 mph)
Wind Gust
  00 kt (0 mph)
Altimeter
29.97 in
Visibility
10 SM
Temperature
05° C
41° F
Dewpoint
01° C
34° F
Humidity
76%
Sky Condition
Overcast @ 3,400 ft
VFR

METAR KPZQ 291515Z AUTO 17009KT 10SM OVC034 05/01 A2997 RMK AO2 T00500008

FAA Disclaimer: The data displayed is for advisory purposes only and is not to be used for flight planning or operations.